createdAt,value
2023-01-06T00:00:30.139Z,46.58
2023-01-06T00:02:56.698Z,52.15
2023-01-06T00:05:23.241Z,49.33
2023-01-06T00:07:50.496Z,52.83
2023-01-06T00:10:17.303Z,47.60
2023-01-06T00:12:47.988Z,51.45
2023-01-06T00:15:16.119Z,48.60
2023-01-06T00:17:42.910Z,49.67
2023-01-06T00:20:10.371Z,44.35
2023-01-06T00:22:36.835Z,50.03
2023-01-06T00:25:03.432Z,43.85
2023-01-06T00:27:31.276Z,46.80
2023-01-06T00:29:57.628Z,40.22
2023-01-06T00:32:24.039Z,40.60
2023-01-06T00:34:50.685Z,38.08
2023-01-06T00:37:17.113Z,40.22
2023-01-06T00:39:43.558Z,38.75
2023-01-06T00:42:09.903Z,40.45
2023-01-06T00:44:38.127Z,37.15
2023-01-06T00:47:06.755Z,35.80
2023-01-06T00:49:33.230Z,37.05
2023-01-06T00:51:59.725Z,36.53
2023-01-06T00:54:26.160Z,37.20
2023-01-06T00:56:54.286Z,41.55
2023-01-06T00:59:22.717Z,39.50
2023-01-06T01:01:51.711Z,38.55
2023-01-06T01:04:19.540Z,39.28
2023-01-06T01:06:47.426Z,40.35
2023-01-06T01:09:17.280Z,37.85
2023-01-06T01:12:02.208Z,36.33
2023-01-06T01:14:28.984Z,35.03
2023-01-06T01:16:55.491Z,36.78
2023-01-06T01:19:22.661Z,38.33
2023-01-06T01:21:49.253Z,36.28
2023-01-06T01:24:15.827Z,38.30
2023-01-06T01:26:42.277Z,38.80
2023-01-06T01:29:11.850Z,37.80
2023-01-06T01:31:38.242Z,38.00
2023-01-06T01:34:04.634Z,35.15
2023-01-06T01:36:31.318Z,37.72
2023-01-06T01:38:58.344Z,38.25
2023-01-06T01:41:26.315Z,40.67
2023-01-06T01:43:58.980Z,40.75
2023-01-06T01:46:42.595Z,39.60
2023-01-06T01:49:19.714Z,37.15
2023-01-06T01:51:48.311Z,36.10
2023-01-06T01:54:23.724Z,38.40
2023-01-06T01:56:55.608Z,34.30
2023-01-06T01:59:26.184Z,38.60
2023-01-06T02:01:53.307Z,37.72
2023-01-06T02:04:21.993Z,38.85
2023-01-06T02:06:50.416Z,34.50
2023-01-06T02:09:39.012Z,29.60
2023-01-06T02:12:05.916Z,24.42
2023-01-06T02:14:32.267Z,26.85
2023-01-06T02:17:32.317Z,24.85
2023-01-06T02:20:24.001Z,20.38
2023-01-06T02:23:12.645Z,20.48
2023-01-06T02:26:15.979Z,20.75
2023-01-06T02:28:57.539Z,16.60
2023-01-06T02:31:31.600Z,16.40
2023-01-06T02:34:27.197Z,16.58
2023-01-06T02:37:11.682Z,15.93
2023-01-06T02:39:47.016Z,15.90
2023-01-06T02:42:42.633Z,13.60
2023-01-06T02:45:22.225Z,14.27
2023-01-06T02:48:09.814Z,14.35
2023-01-06T02:51:04.672Z,13.85
2023-01-06T02:53:39.626Z,15.77
2023-01-06T02:56:06.505Z,15.52
2023-01-06T02:58:51.127Z,17.65
2023-01-06T03:03:52.406Z,17.23
2023-01-06T03:06:24.368Z,23.60
2023-01-06T03:08:53.493Z,25.30
2023-01-06T03:11:20.433Z,26.25
2023-01-06T03:13:55.993Z,28.00
2023-01-06T03:16:22.503Z,26.17
2023-01-06T03:18:51.113Z,25.73
2023-01-06T03:21:21.368Z,27.88
2023-01-06T03:23:47.918Z,28.38
2023-01-06T03:26:15.208Z,27.42
2023-01-06T03:28:41.561Z,29.15
2023-01-06T03:31:17.228Z,29.00
2023-01-06T03:34:13.253Z,27.40
2023-01-06T03:36:49.391Z,27.77
2023-01-06T03:39:22.681Z,26.73
2023-01-06T03:42:35.216Z,28.30
2023-01-06T03:45:28.505Z,23.88
2023-01-06T03:48:19.252Z,23.77
2023-01-06T03:50:57.336Z,24.35
2023-01-06T03:53:49.221Z,24.50
2023-01-06T03:56:30.837Z,22.38
2023-01-06T03:59:13.217Z,20.13
2023-01-06T04:01:43.365Z,19.00
2023-01-06T04:04:10.168Z,21.38
2023-01-06T04:06:36.654Z,22.67
2023-01-06T04:09:03.163Z,19.02
2023-01-06T04:11:48.133Z,21.10
2023-01-06T04:14:14.510Z,18.95
2023-01-06T04:16:40.844Z,20.00
2023-01-06T04:19:07.222Z,20.25
2023-01-06T04:21:33.740Z,20.02
2023-01-06T04:24:00.127Z,19.50
2023-01-06T04:26:26.450Z,23.20
2023-01-06T04:28:52.781Z,21.67
2023-01-06T04:31:19.255Z,20.75
2023-01-06T04:33:45.800Z,22.42
2023-01-06T04:36:12.162Z,22.30
2023-01-06T04:38:38.474Z,23.67
2023-01-06T04:41:04.917Z,23.70
2023-01-06T04:43:31.238Z,26.02
2023-01-06T04:45:59.230Z,26.95
2023-01-06T04:48:26.104Z,25.85
2023-01-06T04:51:08.586Z,25.90
2023-01-06T04:53:36.590Z,25.38
2023-01-06T04:56:04.915Z,26.50
2023-01-06T04:58:31.976Z,27.63
2023-01-06T05:01:06.979Z,29.55
2023-01-06T05:03:35.031Z,27.60
2023-01-06T05:06:09.814Z,28.90
2023-01-06T05:08:37.536Z,26.13
2023-01-06T05:11:07.017Z,27.15
2023-01-06T05:13:34.447Z,30.73
2023-01-06T05:16:00.923Z,27.70
2023-01-06T05:18:27.356Z,29.63
2023-01-06T05:20:55.218Z,28.67
2023-01-06T05:23:21.746Z,28.00
2023-01-06T05:25:52.058Z,29.77
2023-01-06T05:28:19.335Z,27.05
2023-01-06T05:30:45.974Z,39.65
2023-01-06T05:33:12.395Z,30.02
2023-01-06T05:35:38.755Z,30.05
2023-01-06T05:38:05.372Z,30.38
2023-01-06T05:40:31.830Z,24.48
2023-01-06T05:42:58.430Z,28.35
2023-01-06T05:45:25.229Z,29.77
2023-01-06T05:47:52.163Z,32.20
2023-01-06T05:50:19.186Z,30.77
2023-01-06T05:55:29.104Z,22.58
2023-01-06T05:57:55.399Z,25.42
2023-01-06T06:00:21.903Z,29.50
2023-01-06T06:02:48.283Z,30.80
2023-01-06T06:05:14.736Z,28.85
2023-01-06T06:07:41.102Z,29.45
2023-01-06T06:10:09.271Z,28.33
2023-01-06T06:12:36.615Z,27.23
2023-01-06T06:15:05.124Z,27.35
2023-01-06T06:17:31.591Z,26.67
2023-01-06T06:19:57.975Z,25.55
2023-01-06T06:22:24.313Z,26.60
2023-01-06T06:24:50.761Z,26.60
2023-01-06T06:27:19.717Z,25.92
2023-01-06T06:29:46.075Z,26.52
2023-01-06T06:32:12.445Z,25.45
2023-01-06T06:34:38.811Z,24.55
2023-01-06T06:37:05.205Z,24.88
2023-01-06T06:39:31.684Z,23.33
2023-01-06T06:41:58.073Z,24.40
2023-01-06T06:44:24.432Z,25.35
2023-01-06T06:46:50.782Z,22.30
2023-01-06T06:49:17.213Z,25.90
2023-01-06T06:51:47.197Z,24.50
2023-01-06T06:54:14.223Z,24.63
2023-01-06T06:56:40.572Z,26.10
2023-01-06T06:59:06.925Z,26.08
2023-01-06T07:01:33.387Z,25.25
2023-01-06T07:03:59.851Z,27.25
2023-01-06T07:06:31.328Z,24.80
2023-01-06T07:08:57.841Z,25.05
2023-01-06T07:11:24.287Z,28.30
2023-01-06T07:13:50.735Z,28.48
2023-01-06T07:16:18.281Z,28.52
2023-01-06T07:18:44.811Z,28.10
2023-01-06T07:21:11.430Z,25.50
2023-01-06T07:23:37.842Z,30.30
2023-01-06T07:26:04.389Z,27.45
2023-01-06T07:28:32.109Z,29.42
2023-01-06T07:31:03.394Z,28.63
2023-01-06T07:33:30.070Z,29.92
2023-01-06T07:35:57.237Z,30.48
2023-01-06T07:38:24.404Z,30.10
2023-01-06T07:40:51.630Z,25.10
2023-01-06T07:43:18.015Z,25.70
2023-01-06T07:45:49.688Z,29.02
2023-01-06T07:48:17.089Z,28.38
2023-01-06T07:50:43.697Z,28.63
2023-01-06T07:53:11.135Z,29.58
2023-01-06T07:55:37.705Z,29.02
2023-01-06T07:58:08.299Z,26.05
2023-01-06T08:00:35.578Z,30.00
2023-01-06T08:03:07.158Z,30.50
2023-01-06T08:05:37.222Z,29.58
2023-01-06T08:08:03.714Z,32.10
2023-01-06T08:10:30.127Z,30.52
2023-01-06T08:13:05.481Z,29.75
2023-01-06T08:15:31.998Z,25.75
2023-01-06T08:17:58.531Z,32.50
2023-01-06T08:20:25.013Z,30.90
2023-01-06T08:22:51.429Z,30.40
2023-01-06T08:25:18.156Z,31.45
2023-01-06T08:27:44.558Z,32.25
2023-01-06T08:30:11.357Z,30.27
2023-01-06T08:32:37.756Z,31.65
2023-01-06T08:35:04.856Z,30.88
2023-01-06T08:37:31.227Z,31.98
2023-01-06T08:39:57.564Z,32.88
2023-01-06T08:42:24.405Z,30.10
2023-01-06T08:44:50.869Z,30.83
2023-01-06T08:47:17.526Z,27.05
2023-01-06T08:49:44.061Z,27.52
2023-01-06T08:52:10.478Z,28.75
2023-01-06T08:54:39.188Z,31.58
2023-01-06T08:57:06.097Z,34.38
2023-01-06T08:59:32.546Z,34.53
2023-01-06T09:01:58.950Z,32.97
2023-01-06T09:04:25.465Z,33.25
2023-01-06T09:06:51.870Z,34.38
2023-01-06T09:09:18.425Z,36.00
2023-01-06T09:11:46.186Z,40.88
2023-01-06T09:14:14.123Z,41.45
2023-01-06T09:16:41.096Z,43.67
2023-01-06T09:19:10.144Z,47.08
2023-01-06T09:21:36.651Z,48.42
2023-01-06T09:24:03.315Z,50.25
2023-01-06T09:26:29.905Z,56.78
2023-01-06T09:28:56.327Z,50.55
2023-01-06T09:31:22.765Z,49.38
2023-01-06T09:33:49.308Z,55.92
2023-01-06T09:36:15.686Z,52.75
2023-01-06T09:38:42.058Z,64.85
2023-01-06T09:41:39.397Z,51.63
2023-01-06T09:44:17.756Z,57.08
2023-01-06T09:46:48.039Z,62.92
2023-01-06T09:49:38.903Z,59.00
2023-01-06T09:52:15.036Z,67.65
2023-01-06T09:55:09.062Z,61.80
2023-01-06T09:57:46.977Z,70.50
2023-01-06T10:00:33.639Z,79.03
2023-01-06T10:03:00.139Z,72.35
2023-01-06T10:05:53.139Z,98.45
2023-01-06T10:08:22.544Z,76.32
2023-01-06T10:11:10.902Z,85.88
2023-01-06T10:13:40.485Z,94.57
2023-01-06T10:16:29.243Z,80.95
2023-01-06T10:19:12.347Z,120.32
2023-01-06T10:21:50.611Z,78.93
2023-01-06T10:24:44.819Z,86.32
2023-01-06T10:27:26.746Z,99.80
2023-01-06T10:29:55.729Z,83.28
2023-01-06T10:32:23.296Z,93.47
2023-01-06T10:34:50.925Z,96.50
2023-01-06T10:37:17.246Z,108.55
2023-01-06T10:39:45.871Z,89.00
2023-01-06T10:42:57.335Z,102.68
2023-01-06T10:45:26.815Z,70.78
2023-01-06T10:47:54.041Z,61.67
2023-01-06T10:50:20.876Z,57.47
2023-01-06T10:52:48.610Z,54.63
2023-01-06T10:55:33.705Z,82.82
2023-01-06T10:58:12.593Z,41.85
2023-01-06T11:00:54.698Z,38.03
2023-01-06T11:03:32.863Z,44.40
2023-01-06T11:06:06.462Z,43.53
2023-01-06T11:08:44.144Z,45.03
2023-01-06T11:11:27.347Z,45.85
2023-01-06T11:14:01.056Z,48.38
2023-01-06T11:16:33.101Z,45.25
2023-01-06T11:19:08.194Z,51.95
2023-01-06T11:21:46.715Z,49.15
2023-01-06T11:24:25.347Z,46.08
2023-01-06T11:26:54.724Z,46.67
2023-01-06T11:29:29.188Z,44.78
2023-01-06T11:31:57.867Z,48.33
2023-01-06T11:34:27.322Z,44.83
2023-01-06T11:36:53.792Z,50.65
2023-01-06T11:39:24.539Z,46.65
2023-01-06T11:41:53.871Z,37.60
2023-01-06T11:44:32.108Z,35.38
2023-01-06T11:47:12.208Z,40.35
2023-01-06T11:49:50.997Z,40.55
2023-01-06T11:52:17.318Z,37.65
2023-01-06T11:54:44.659Z,34.90
2023-01-06T11:57:27.541Z,38.40
2023-01-06T12:00:24.740Z,33.65
2023-01-06T12:03:07.276Z,39.88
2023-01-06T12:05:45.603Z,42.30
2023-01-06T12:08:19.832Z,49.70
2023-01-06T12:13:14.886Z,51.85
2023-01-06T12:15:44.060Z,51.35
2023-01-06T12:18:18.947Z,52.22
2023-01-06T12:20:49.869Z,54.78
2023-01-06T12:23:35.938Z,55.70
2023-01-06T12:26:09.223Z,54.88
2023-01-06T12:28:38.377Z,51.08
2023-01-06T12:31:15.908Z,60.92
2023-01-06T12:33:49.332Z,58.47
2023-01-06T12:36:37.569Z,60.47
2023-01-06T12:39:10.972Z,66.00
2023-01-06T12:41:58.276Z,71.20
2023-01-06T12:44:52.142Z,77.43
2023-01-06T12:47:54.899Z,79.28
2023-01-06T12:50:34.265Z,83.38
2023-01-06T12:53:07.375Z,95.82
2023-01-06T12:55:58.166Z,113.03
2023-01-06T12:58:39.707Z,112.03
2023-01-06T13:01:16.065Z,159.63
2023-01-06T13:04:35.175Z,205.57
2023-01-06T13:07:32.404Z,139.82
2023-01-06T13:10:15.568Z,121.28
2023-01-06T13:13:02.574Z,116.13
2023-01-06T13:15:31.721Z,103.18
2023-01-06T13:18:07.163Z,107.53
2023-01-06T13:20:43.040Z,90.57
2023-01-06T13:23:27.913Z,83.57
2023-01-06T13:26:19.173Z,82.38
2023-01-06T13:29:08.954Z,67.78
2023-01-06T13:31:52.923Z,61.75
2023-01-06T13:34:31.477Z,54.72
2023-01-06T13:37:20.723Z,63.17
2023-01-06T13:40:00.919Z,59.05
2023-01-06T13:42:54.572Z,53.10
2023-01-06T13:45:31.840Z,55.35
2023-01-06T13:48:00.779Z,60.60
2023-01-06T13:50:28.533Z,66.45
2023-01-06T13:52:56.125Z,67.82
2023-01-06T13:55:26.083Z,65.90
2023-01-06T13:57:52.770Z,71.43
2023-01-06T14:00:25.254Z,70.82
2023-01-06T14:02:51.720Z,68.07
2023-01-06T14:05:21.418Z,65.85
2023-01-06T14:07:55.197Z,69.03
2023-01-06T14:10:42.966Z,66.72
2023-01-06T14:13:30.475Z,60.53
2023-01-06T14:16:05.289Z,56.97
2023-01-06T14:18:36.964Z,62.85
2023-01-06T14:21:20.655Z,71.95
2023-01-06T14:24:01.032Z,67.23
2023-01-06T14:27:01.279Z,70.45
2023-01-06T14:29:50.104Z,70.93
2023-01-06T14:32:18.929Z,73.72
2023-01-06T14:34:58.564Z,91.93
2023-01-06T14:37:29.051Z,77.45
2023-01-06T14:39:56.669Z,112.07
2023-01-06T14:42:45.289Z,105.68
2023-01-06T14:45:23.027Z,83.60
2023-01-06T14:47:52.977Z,98.22
2023-01-06T14:50:41.972Z,103.68
2023-01-06T14:53:23.085Z,86.95
2023-01-06T14:55:50.867Z,88.32
2023-01-06T14:58:36.781Z,94.90
2023-01-06T15:01:08.199Z,85.70
2023-01-06T15:03:35.163Z,79.28
2023-01-06T15:06:23.191Z,77.63
2023-01-06T15:08:50.153Z,69.57
2023-01-06T15:11:22.858Z,63.53
2023-01-06T15:13:49.576Z,65.07
2023-01-06T15:16:21.199Z,64.47
2023-01-06T15:18:48.754Z,65.60
2023-01-06T15:21:15.435Z,66.53
2023-01-06T15:23:50.833Z,65.82
2023-01-06T15:26:21.036Z,70.10
2023-01-06T15:29:02.777Z,67.03
2023-01-06T15:31:32.920Z,64.70
2023-01-06T15:34:02.408Z,69.55
2023-01-06T15:36:30.124Z,66.10
2023-01-06T15:39:02.304Z,69.75
2023-01-06T15:41:33.122Z,67.75
2023-01-06T15:44:20.457Z,66.65
2023-01-06T15:46:49.294Z,66.38
2023-01-06T15:49:25.601Z,65.70
2023-01-06T15:51:55.675Z,73.20
2023-01-06T15:54:22.820Z,70.65
2023-01-06T15:56:49.259Z,64.00
2023-01-06T15:59:15.757Z,69.95
2023-01-06T16:01:51.343Z,65.82
2023-01-06T16:04:18.371Z,73.68
2023-01-06T16:06:44.827Z,67.38
2023-01-06T16:09:40.328Z,72.35
2023-01-06T16:12:09.625Z,78.85
2023-01-06T16:14:43.806Z,70.65
2023-01-06T16:17:11.556Z,67.05
2023-01-06T16:19:49.463Z,66.78
2023-01-06T16:22:30.949Z,80.65
2023-01-06T16:24:59.912Z,76.30
2023-01-06T16:27:27.092Z,75.78
2023-01-06T16:30:20.741Z,77.30
2023-01-06T16:32:47.876Z,71.60
2023-01-06T16:35:19.707Z,74.57
2023-01-06T16:37:46.128Z,74.20
2023-01-06T16:40:14.051Z,71.03
2023-01-06T16:42:40.989Z,73.68
2023-01-06T16:45:16.351Z,70.13
2023-01-06T16:47:43.472Z,70.47
2023-01-06T16:50:30.964Z,64.63
2023-01-06T16:53:10.755Z,67.70
2023-01-06T16:55:38.706Z,72.10
2023-01-06T16:58:17.819Z,70.47
2023-01-06T17:00:51.170Z,71.13
2023-01-06T17:03:23.911Z,68.67
2023-01-06T17:05:51.455Z,67.18
2023-01-06T17:08:25.377Z,68.63
2023-01-06T17:10:51.764Z,65.80
2023-01-06T17:13:36.486Z,70.45
2023-01-06T17:16:15.807Z,77.75
2023-01-06T17:18:52.337Z,64.07
2023-01-06T17:21:26.773Z,71.50
2023-01-06T17:23:57.691Z,67.63
2023-01-06T17:26:24.487Z,66.75
2023-01-06T17:28:53.699Z,65.97
2023-01-06T17:31:37.071Z,65.05
2023-01-06T17:34:19.630Z,58.65
2023-01-06T17:36:47.864Z,64.18
2023-01-06T17:39:30.218Z,57.05
2023-01-06T17:42:17.833Z,56.65
2023-01-06T17:44:51.240Z,55.40
2023-01-06T17:47:17.689Z,55.87
2023-01-06T17:49:48.660Z,60.00
2023-01-06T17:52:34.793Z,58.47
2023-01-06T17:55:26.031Z,56.72
2023-01-06T17:57:57.750Z,58.75
2023-01-06T18:00:29.352Z,59.53
2023-01-06T18:03:04.945Z,62.30
2023-01-06T18:05:33.185Z,55.10
2023-01-06T18:08:05.506Z,60.75
2023-01-06T18:10:34.520Z,59.60
2023-01-06T18:13:15.693Z,58.90
2023-01-06T18:15:43.326Z,55.38
2023-01-06T18:18:24.076Z,58.70
2023-01-06T18:20:58.617Z,54.33
2023-01-06T18:23:26.236Z,56.03
2023-01-06T18:25:56.562Z,51.00
2023-01-06T18:28:23.318Z,53.20
2023-01-06T18:31:02.975Z,51.78
2023-01-06T18:33:30.032Z,52.50
2023-01-06T18:35:59.384Z,52.88
2023-01-06T18:38:27.067Z,54.38
2023-01-06T18:40:54.558Z,54.10
2023-01-06T18:43:26.122Z,56.72
2023-01-06T18:45:55.226Z,49.35
2023-01-06T18:48:30.292Z,50.50
2023-01-06T18:50:59.024Z,52.30
2023-01-06T18:53:25.617Z,50.38
2023-01-06T18:55:58.496Z,52.20
2023-01-06T18:58:47.016Z,51.38
2023-01-06T19:01:26.340Z,51.45
2023-01-06T19:04:10.089Z,51.75
2023-01-06T19:06:45.510Z,48.57
2023-01-06T19:09:30.539Z,49.13
2023-01-06T19:12:17.324Z,49.88
2023-01-06T19:14:48.184Z,54.80
2023-01-06T19:17:23.123Z,53.08
2023-01-06T19:19:52.507Z,51.53
2023-01-06T19:22:27.194Z,51.70
2023-01-06T19:25:04.723Z,49.35
2023-01-06T19:27:39.342Z,49.28
2023-01-06T19:30:30.067Z,52.95
2023-01-06T19:33:10.289Z,48.33
2023-01-06T19:35:36.684Z,49.58
2023-01-06T19:38:18.098Z,57.03
2023-01-06T19:40:44.512Z,53.13
2023-01-06T19:43:19.866Z,51.10
2023-01-06T19:45:46.244Z,52.60
2023-01-06T19:48:22.648Z,51.15
2023-01-06T19:50:49.800Z,51.47
2023-01-06T19:53:38.924Z,53.88
2023-01-06T19:56:16.382Z,50.40
2023-01-06T19:58:44.587Z,51.30
2023-01-06T20:01:14.194Z,50.53
2023-01-06T20:03:50.154Z,53.33
2023-01-06T20:06:16.572Z,49.13
2023-01-06T20:08:43.909Z,52.13
2023-01-06T20:11:11.926Z,49.03
2023-01-06T20:13:38.428Z,49.63
2023-01-06T20:16:05.777Z,50.83
2023-01-06T20:18:32.414Z,49.30
2023-01-06T20:20:58.995Z,53.05
2023-01-06T20:23:25.447Z,46.53
2023-01-06T20:25:51.845Z,50.88
2023-01-06T20:28:18.426Z,51.08
2023-01-06T20:30:46.438Z,44.75
2023-01-06T20:33:13.440Z,46.55
2023-01-06T20:35:39.816Z,48.92
2023-01-06T20:38:06.187Z,49.00
2023-01-06T20:40:32.592Z,47.25
2023-01-06T20:42:58.932Z,51.67
2023-01-06T20:45:25.296Z,46.97
2023-01-06T20:47:51.652Z,49.20
2023-01-06T20:50:18.151Z,50.00
2023-01-06T20:52:45.461Z,49.97
2023-01-06T20:55:12.339Z,56.90
2023-01-06T20:57:38.769Z,54.33
2023-01-06T21:00:07.002Z,52.88
2023-01-06T21:02:33.855Z,55.78
2023-01-06T21:05:00.277Z,55.25
2023-01-06T21:07:26.716Z,51.05
2023-01-06T21:09:53.047Z,56.40
2023-01-06T21:12:19.498Z,50.70
2023-01-06T21:14:45.874Z,54.47
2023-01-06T21:17:12.240Z,51.65
2023-01-06T21:19:38.548Z,50.33
2023-01-06T21:22:04.930Z,44.67
2023-01-06T21:24:31.305Z,49.20
2023-01-06T21:26:57.658Z,43.72
2023-01-06T21:29:24.020Z,41.63
2023-01-06T21:31:50.377Z,43.05
2023-01-06T21:34:16.688Z,45.55
2023-01-06T21:36:43.135Z,45.08
2023-01-06T21:39:12.544Z,46.38
2023-01-06T21:41:57.548Z,44.80
2023-01-06T21:44:23.886Z,48.67
2023-01-06T21:46:50.277Z,44.42
2023-01-06T21:49:16.627Z,39.90
2023-01-06T21:51:43.068Z,43.13
2023-01-06T21:54:09.541Z,47.38
2023-01-06T21:56:36.344Z,45.50
2023-01-06T21:59:02.770Z,41.88
2023-01-06T22:01:29.832Z,43.53
2023-01-06T22:03:56.256Z,41.97
2023-01-06T22:06:23.759Z,44.90
2023-01-06T22:08:53.053Z,41.97
2023-01-06T22:11:19.795Z,44.08
2023-01-06T22:13:46.223Z,46.28
2023-01-06T22:16:12.907Z,44.75
2023-01-06T22:18:39.793Z,46.67
2023-01-06T22:21:06.842Z,47.05
2023-01-06T22:23:33.938Z,45.45
2023-01-06T22:26:00.289Z,46.95
2023-01-06T22:28:27.797Z,43.33
2023-01-06T22:30:55.343Z,43.85
2023-01-06T22:33:21.737Z,42.90
2023-01-06T22:35:48.115Z,41.75
2023-01-06T22:38:14.442Z,41.35
2023-01-06T22:40:40.812Z,42.55
2023-01-06T22:43:07.622Z,44.58
2023-01-06T22:45:34.922Z,44.67
2023-01-06T22:48:01.804Z,47.72
2023-01-06T22:50:29.152Z,46.78
2023-01-06T22:52:56.283Z,47.03
2023-01-06T22:55:22.785Z,43.58
2023-01-06T22:57:49.122Z,44.22
2023-01-06T23:00:17.563Z,47.00
2023-01-06T23:02:44.285Z,47.33
2023-01-06T23:05:10.924Z,44.20
2023-01-06T23:07:42.261Z,45.63
2023-01-06T23:10:10.653Z,44.88
2023-01-06T23:12:39.254Z,44.20
2023-01-06T23:15:06.961Z,47.63
2023-01-06T23:17:33.293Z,47.20
2023-01-06T23:19:59.594Z,47.10
2023-01-06T23:22:25.947Z,43.00
2023-01-06T23:24:52.333Z,48.83
2023-01-06T23:27:18.634Z,46.95
2023-01-06T23:29:45.929Z,49.42
2023-01-06T23:32:12.745Z,47.60
2023-01-06T23:34:39.070Z,50.38
2023-01-06T23:37:05.384Z,50.10
2023-01-06T23:39:31.707Z,50.38
2023-01-06T23:41:58.070Z,50.33
2023-01-06T23:44:24.396Z,52.95
2023-01-06T23:46:50.753Z,50.47
2023-01-06T23:49:17.495Z,52.17
2023-01-06T23:51:44.753Z,49.67
2023-01-06T23:54:12.244Z,49.83
2023-01-06T23:56:38.943Z,48.25
2023-01-06T23:59:07.064Z,51.55
